createdAt,value
2018-12-24T00:01:11.015Z,374.80
2018-12-24T00:03:40.499Z,279.40
2018-12-24T00:06:09.855Z,212.10
2018-12-24T00:08:39.381Z,419.57
2018-12-24T00:11:08.836Z,171.20
2018-12-24T00:13:38.397Z,96.93
2018-12-24T00:16:07.857Z,296.77
2018-12-24T00:18:37.280Z,444.60
2018-12-24T00:21:06.705Z,169.93
2018-12-24T00:23:36.111Z,171.07
2018-12-24T00:26:05.584Z,198.90
2018-12-24T00:28:35.058Z,358.07
2018-12-24T00:31:04.546Z,60.53
2018-12-24T00:33:33.943Z,322.63
2018-12-24T00:36:03.357Z,96.60
2018-12-24T00:38:32.798Z,225.07
2018-12-24T00:41:02.192Z,386.10
2018-12-24T00:43:31.541Z,310.00
2018-12-24T00:46:00.869Z,211.10
2018-12-24T00:48:30.260Z,152.97
2018-12-24T00:50:59.600Z,70.03
2018-12-24T00:53:29.020Z,136.77
2018-12-24T00:55:58.532Z,73.30
2018-12-24T00:58:27.966Z,227.50
2018-12-24T01:00:57.464Z,134.17
2018-12-24T01:03:26.871Z,327.87
2018-12-24T01:05:56.419Z,343.03
2018-12-24T01:08:25.819Z,325.67
2018-12-24T01:10:55.268Z,201.90
2018-12-24T01:13:24.717Z,175.23
2018-12-24T01:15:54.072Z,212.43
2018-12-24T01:18:23.468Z,247.80
2018-12-24T01:20:52.830Z,107.97
2018-12-24T01:23:22.266Z,182.47
2018-12-24T01:25:51.687Z,145.00
2018-12-24T01:28:21.102Z,277.37
2018-12-24T01:30:50.553Z,361.20
2018-12-24T01:33:20.044Z,315.80
2018-12-24T01:35:49.369Z,129.80
2018-12-24T01:38:18.741Z,265.93
2018-12-24T01:40:48.167Z,115.60
2018-12-24T01:43:17.636Z,226.37
2018-12-24T01:45:47.065Z,161.20
2018-12-24T01:48:16.465Z,275.10
2018-12-24T01:50:45.801Z,290.57
2018-12-24T01:53:15.165Z,363.50
2018-12-24T01:55:44.684Z,206.60
2018-12-24T01:58:14.086Z,112.33
2018-12-24T02:00:43.457Z,169.93
2018-12-24T02:03:12.899Z,281.40
2018-12-24T02:05:42.264Z,112.53
2018-12-24T02:08:11.644Z,157.43
2018-12-24T02:10:41.117Z,93.17
2018-12-24T02:13:10.492Z,204.97
2018-12-24T02:15:39.932Z,157.77
2018-12-24T02:18:09.417Z,108.17
2018-12-24T02:20:38.829Z,233.83
2018-12-24T02:23:08.280Z,102.97
2018-12-24T02:25:37.871Z,109.10
2018-12-24T02:28:07.313Z,228.17
2018-12-24T02:30:36.750Z,191.63
2018-12-24T02:33:06.314Z,146.53
2018-12-24T02:35:35.770Z,142.77
2018-12-24T02:38:05.187Z,256.90
2018-12-24T02:40:34.629Z,157.83
2018-12-24T02:43:04.077Z,383.67
2018-12-24T02:45:33.478Z,273.43
2018-12-24T02:48:02.888Z,261.87
2018-12-24T02:50:32.338Z,145.77
2018-12-24T02:53:01.789Z,441.60
2018-12-24T02:55:31.262Z,210.80
2018-12-24T02:58:00.635Z,218.60
2018-12-24T03:00:30.090Z,136.77
2018-12-24T03:03:00.000Z,149.47
2018-12-24T03:05:29.412Z,122.70
2018-12-24T03:07:58.795Z,140.03
2018-12-24T03:10:28.207Z,227.17
2018-12-24T03:13:02.642Z,249.07
2018-12-24T03:15:28.771Z,283.63
2018-12-24T03:17:58.315Z,276.23
2018-12-24T03:20:27.662Z,127.80
2018-12-24T03:22:57.049Z,184.43
2018-12-24T03:25:26.449Z,217.43
2018-12-24T03:27:55.770Z,371.57
2018-12-24T03:30:25.154Z,168.00
2018-12-24T03:32:54.612Z,273.73
2018-12-24T03:35:24.008Z,202.27
2018-12-24T03:37:53.435Z,186.47
2018-12-24T03:40:22.937Z,172.73
2018-12-24T03:42:52.360Z,118.37
2018-12-24T03:45:21.796Z,192.40
2018-12-24T03:47:51.296Z,110.43
2018-12-24T03:50:20.665Z,437.27
2018-12-24T03:52:50.151Z,151.33
2018-12-24T03:55:19.641Z,87.10
2018-12-24T03:57:49.066Z,96.13
2018-12-24T04:00:18.482Z,215.27
2018-12-24T04:02:47.892Z,165.50
2018-12-24T04:05:17.262Z,98.47
2018-12-24T04:07:46.715Z,132.40
2018-12-24T04:10:16.227Z,282.50
2018-12-24T04:12:45.659Z,246.60
2018-12-24T04:15:15.095Z,55.37
2018-12-24T04:17:44.602Z,180.43
2018-12-24T04:20:14.030Z,156.27
2018-12-24T04:22:43.459Z,241.37
2018-12-24T04:25:12.920Z,179.80
2018-12-24T04:27:42.388Z,283.23
2018-12-24T04:30:11.802Z,341.80
2018-12-24T04:32:41.248Z,138.27
2018-12-24T04:35:10.767Z,216.50
2018-12-24T04:37:40.201Z,402.40
2018-12-24T04:40:09.664Z,295.90
2018-12-24T04:42:39.176Z,120.27
2018-12-24T04:45:08.581Z,171.63
2018-12-24T04:47:37.995Z,80.20
2018-12-24T04:50:07.389Z,137.30
2018-12-24T04:52:36.847Z,259.33
2018-12-24T04:55:06.378Z,105.23
2018-12-24T04:57:35.826Z,129.47
2018-12-24T05:00:05.341Z,158.70
2018-12-24T05:02:34.837Z,119.37
2018-12-24T05:05:04.184Z,93.67
2018-12-24T05:07:33.619Z,153.37
2018-12-24T05:10:03.040Z,90.47
2018-12-24T05:12:32.439Z,59.13
2018-12-24T05:15:01.811Z,187.77
2018-12-24T05:17:31.305Z,32.00
2018-12-24T05:20:00.761Z,256.50
2018-12-24T05:22:30.192Z,262.93
2018-12-24T05:24:59.676Z,174.20
2018-12-24T05:27:29.309Z,274.20
2018-12-24T05:30:00.129Z,219.30
2018-12-24T05:32:29.623Z,109.53
2018-12-24T05:34:58.968Z,202.33
2018-12-24T05:37:28.425Z,367.93
2018-12-24T05:39:57.814Z,101.90
2018-12-24T05:42:27.169Z,78.90
2018-12-24T05:44:56.626Z,111.93
2018-12-24T05:47:26.045Z,211.17
2018-12-24T05:49:55.389Z,142.10
2018-12-24T05:52:24.720Z,181.30
2018-12-24T05:54:54.123Z,172.63
2018-12-24T05:57:23.627Z,220.47
2018-12-24T05:59:53.037Z,95.97
2018-12-24T06:02:22.449Z,120.53
2018-12-24T06:04:51.808Z,451.17
2018-12-24T06:07:21.173Z,122.07
2018-12-24T06:09:50.600Z,294.27
2018-12-24T06:12:20.008Z,118.97
2018-12-24T06:14:49.457Z,158.40
2018-12-24T06:17:18.895Z,80.67
2018-12-24T06:19:48.269Z,212.30
2018-12-24T06:22:17.862Z,269.37
2018-12-24T06:24:47.275Z,135.43
2018-12-24T06:27:16.665Z,291.57
2018-12-24T06:29:46.073Z,265.13
2018-12-24T06:32:15.478Z,223.93
2018-12-24T06:34:44.846Z,232.23
2018-12-24T06:37:14.301Z,263.80
2018-12-24T06:39:43.750Z,245.17
2018-12-24T06:42:13.211Z,452.40
2018-12-24T06:44:42.603Z,370.20
2018-12-24T06:47:12.025Z,314.80
2018-12-24T06:49:41.443Z,324.83
2018-12-24T06:52:10.814Z,498.13
2018-12-24T06:54:40.265Z,454.27
2018-12-24T06:57:09.681Z,267.90
2018-12-24T06:59:39.105Z,202.03
2018-12-24T07:02:08.526Z,237.10
2018-12-24T07:04:37.923Z,137.77
2018-12-24T07:07:07.324Z,244.37
2018-12-24T07:09:36.712Z,138.33
2018-12-24T07:12:06.070Z,255.50
2018-12-24T07:14:35.483Z,184.47
2018-12-24T07:17:04.945Z,161.70
2018-12-24T07:19:34.304Z,336.93
2018-12-24T07:22:03.671Z,281.23
2018-12-24T07:24:33.156Z,378.87
2018-12-24T07:27:02.563Z,275.93
2018-12-24T07:29:31.950Z,117.63
2018-12-24T07:32:01.374Z,500.53
2018-12-24T07:34:32.582Z,332.73
2018-12-24T07:37:01.915Z,196.03
2018-12-24T07:39:31.436Z,196.90
2018-12-24T07:42:00.777Z,136.27
2018-12-24T07:44:30.141Z,123.37
2018-12-24T07:46:59.548Z,151.80
2018-12-24T07:49:28.964Z,353.50
2018-12-24T07:51:58.335Z,102.40
2018-12-24T07:54:27.825Z,90.43
2018-12-24T07:56:57.291Z,59.87
2018-12-24T07:59:26.685Z,90.40
2018-12-24T08:01:56.150Z,52.00
2018-12-24T08:04:25.593Z,65.20
2018-12-24T08:06:54.932Z,33.33
2018-12-24T08:09:24.447Z,41.00
2018-12-24T08:11:53.907Z,36.67
2018-12-24T08:14:23.376Z,43.30
2018-12-24T08:16:52.896Z,28.80
2018-12-24T08:19:22.323Z,42.83
2018-12-24T08:21:51.731Z,34.33
2018-12-24T08:24:21.123Z,45.37
2018-12-24T08:26:53.389Z,40.93
2018-12-24T08:29:21.587Z,40.97
2018-12-24T08:31:51.062Z,52.47
2018-12-24T08:34:20.505Z,59.87
2018-12-24T08:36:49.909Z,76.80
2018-12-24T08:39:19.316Z,35.10
2018-12-24T08:41:48.786Z,32.10
2018-12-24T08:44:18.140Z,44.57
2018-12-24T08:46:47.627Z,39.07
2018-12-24T08:49:17.036Z,41.20
2018-12-24T08:51:46.409Z,48.07
2018-12-24T08:54:19.064Z,38.50
2018-12-24T08:56:48.494Z,34.13
2018-12-24T08:59:17.847Z,34.97
2018-12-24T09:01:47.593Z,38.67
2018-12-24T09:04:16.940Z,33.67
2018-12-24T09:06:46.310Z,38.20
2018-12-24T09:09:15.823Z,36.87
2018-12-24T09:11:45.267Z,35.57
2018-12-24T09:14:14.672Z,32.23
2018-12-24T09:16:44.185Z,31.43
2018-12-24T09:19:13.603Z,32.73
2018-12-24T09:21:42.983Z,27.93
2018-12-24T09:24:12.438Z,29.73
2018-12-24T09:26:41.791Z,29.20
2018-12-24T09:29:11.193Z,30.53
2018-12-24T09:31:40.605Z,30.37
2018-12-24T09:34:09.960Z,30.00
2018-12-24T09:36:39.335Z,26.33
2018-12-24T09:39:08.788Z,30.37
2018-12-24T09:41:38.243Z,28.13
2018-12-24T09:44:07.692Z,26.43
2018-12-24T09:46:37.054Z,26.83
2018-12-24T09:49:06.403Z,28.90
2018-12-24T09:51:35.798Z,28.07
2018-12-24T09:54:05.197Z,26.23
2018-12-24T09:56:34.616Z,28.13
2018-12-24T09:59:03.963Z,24.93
2018-12-24T10:01:33.481Z,28.23
2018-12-24T10:04:12.553Z,29.27
2018-12-24T10:06:42.760Z,30.67
2018-12-24T10:09:13.850Z,32.77
2018-12-24T10:11:43.310Z,30.73
2018-12-24T10:14:12.770Z,39.00
2018-12-24T10:16:42.116Z,33.30
2018-12-24T10:19:11.468Z,39.93
2018-12-24T10:21:40.871Z,48.93
2018-12-24T10:24:10.279Z,39.80
2018-12-24T10:26:39.665Z,41.27
2018-12-24T10:29:09.161Z,46.13
2018-12-24T10:31:38.601Z,41.43
2018-12-24T10:34:07.972Z,42.77
2018-12-24T10:36:37.461Z,42.63
2018-12-24T10:39:08.721Z,50.93
2018-12-24T10:41:38.150Z,44.40
2018-12-24T10:44:07.650Z,45.37
2018-12-24T10:46:37.128Z,49.73
2018-12-24T10:49:06.490Z,50.73
2018-12-24T10:51:35.955Z,47.80
2018-12-24T10:54:05.364Z,51.80
2018-12-24T10:56:34.700Z,52.33
2018-12-24T10:59:04.223Z,51.43
2018-12-24T11:01:33.664Z,48.27
2018-12-24T11:04:03.029Z,46.07
2018-12-24T11:06:32.556Z,46.33
2018-12-24T11:09:02.217Z,46.67
2018-12-24T11:11:32.886Z,48.93
2018-12-24T11:14:02.355Z,50.67
2018-12-24T11:16:31.754Z,49.77
2018-12-24T11:19:01.180Z,48.63
2018-12-24T11:21:30.593Z,48.73
2018-12-24T11:23:59.970Z,52.60
2018-12-24T11:26:29.343Z,49.23
2018-12-24T11:28:58.860Z,53.83
2018-12-24T11:31:28.285Z,51.77
2018-12-24T11:33:57.674Z,54.73
2018-12-24T11:36:27.066Z,51.63
2018-12-24T11:38:56.511Z,50.03
2018-12-24T11:41:25.958Z,47.10
2018-12-24T11:43:55.395Z,49.80
2018-12-24T11:46:24.750Z,54.03
2018-12-24T11:48:54.274Z,52.90
2018-12-24T11:51:23.677Z,50.27
2018-12-24T11:53:53.040Z,52.07
2018-12-24T11:56:22.424Z,48.27
2018-12-24T11:58:51.997Z,52.03
2018-12-24T12:01:21.432Z,52.90
2018-12-24T12:03:50.956Z,51.00
2018-12-24T12:06:20.482Z,48.50
2018-12-24T12:08:50.237Z,45.97
2018-12-24T12:11:19.685Z,52.67
2018-12-24T12:13:49.174Z,55.07
2018-12-24T12:16:18.606Z,55.97
2018-12-24T12:18:48.011Z,51.87
2018-12-24T12:21:17.524Z,55.47
2018-12-24T12:23:46.943Z,59.10
2018-12-24T12:26:16.306Z,55.07
2018-12-24T12:28:45.724Z,51.07
2018-12-24T12:31:15.141Z,52.70
2018-12-24T12:33:44.579Z,55.43
2018-12-24T12:36:14.087Z,52.33
2018-12-24T12:38:43.511Z,59.30
2018-12-24T12:41:12.949Z,61.90
2018-12-24T12:43:42.467Z,62.87
2018-12-24T12:46:11.883Z,67.43
2018-12-24T12:48:41.403Z,64.77
2018-12-24T12:51:10.913Z,63.27
2018-12-24T12:53:40.277Z,66.53
2018-12-24T12:56:09.644Z,68.27
2018-12-24T12:58:39.111Z,73.97
2018-12-24T13:01:08.464Z,74.10
2018-12-24T13:03:38.216Z,71.60
2018-12-24T13:06:07.659Z,68.10
2018-12-24T13:08:37.116Z,65.63
2018-12-24T13:11:06.637Z,75.10
2018-12-24T13:13:36.901Z,73.03
2018-12-24T13:16:06.795Z,79.63
2018-12-24T13:18:36.204Z,85.97
2018-12-24T13:21:05.583Z,83.47
2018-12-24T13:23:34.993Z,85.10
2018-12-24T13:26:04.367Z,76.90
2018-12-24T13:28:33.860Z,86.97
2018-12-24T13:31:03.298Z,84.40
2018-12-24T13:33:32.740Z,79.60
2018-12-24T13:36:02.204Z,67.17
2018-12-24T13:38:31.600Z,68.50
2018-12-24T13:41:01.025Z,76.00
2018-12-24T13:43:30.584Z,101.90
2018-12-24T13:46:07.877Z,389.20
2018-12-24T13:48:31.921Z,383.27
2018-12-24T13:51:01.289Z,299.07
2018-12-24T13:53:30.650Z,82.83
2018-12-24T13:56:00.263Z,89.53
2018-12-24T13:58:29.729Z,78.60
2018-12-24T14:00:59.156Z,83.37
2018-12-24T14:03:28.654Z,63.80
2018-12-24T14:05:58.094Z,66.17
2018-12-24T14:08:27.514Z,59.80
2018-12-24T14:10:56.909Z,61.10
2018-12-24T14:13:26.347Z,65.00
2018-12-24T14:15:55.776Z,66.20
2018-12-24T14:18:25.345Z,69.70
2018-12-24T14:20:54.732Z,64.27
2018-12-24T14:23:24.197Z,64.33
2018-12-24T14:25:53.717Z,77.37
2018-12-24T14:28:23.268Z,77.37
2018-12-24T14:30:52.698Z,65.20
2018-12-24T14:33:22.095Z,67.17
2018-12-24T14:35:51.458Z,83.07
2018-12-24T14:38:20.824Z,143.77
2018-12-24T14:40:50.233Z,91.03
2018-12-24T14:43:19.644Z,84.07
2018-12-24T14:45:49.015Z,76.83
2018-12-24T14:48:21.739Z,66.80
2018-12-24T14:50:51.311Z,68.97
2018-12-24T14:53:20.715Z,64.87
2018-12-24T14:55:53.313Z,65.40
2018-12-24T14:58:22.753Z,60.73
2018-12-24T15:00:52.233Z,63.40
2018-12-24T15:03:21.706Z,60.20
2018-12-24T15:05:51.034Z,64.97
2018-12-24T15:08:20.370Z,75.80
2018-12-24T15:10:49.879Z,67.20
2018-12-24T15:13:19.299Z,74.20
2018-12-24T15:15:48.707Z,89.93
2018-12-24T15:18:18.209Z,85.20
2018-12-24T15:20:47.858Z,87.17
2018-12-24T15:23:18.689Z,86.73
2018-12-24T15:25:48.310Z,90.57
2018-12-24T15:28:17.726Z,82.90
2018-12-24T15:30:47.074Z,79.63
2018-12-24T15:33:16.455Z,75.33
2018-12-24T15:35:45.911Z,71.13
2018-12-24T15:38:15.354Z,74.47
2018-12-24T15:40:44.795Z,92.80
2018-12-24T15:43:14.255Z,76.90
2018-12-24T15:45:43.726Z,92.80
2018-12-24T15:48:13.536Z,567.03
2018-12-24T15:50:43.186Z,772.03
2018-12-24T15:53:12.600Z,789.67
2018-12-24T15:55:42.154Z,673.37
2018-12-24T15:58:11.530Z,539.70
2018-12-24T16:00:40.905Z,469.27
2018-12-24T16:03:10.341Z,392.33
2018-12-24T16:05:39.713Z,314.37
2018-12-24T16:08:09.038Z,310.47
2018-12-24T16:10:38.427Z,255.53
2018-12-24T16:13:07.854Z,208.33
2018-12-24T16:15:37.330Z,183.30
2018-12-24T16:18:06.743Z,137.63
2018-12-24T16:20:36.127Z,93.83
2018-12-24T16:23:05.519Z,130.90
2018-12-24T16:25:34.991Z,78.30
2018-12-24T16:28:04.436Z,62.83
2018-12-24T16:30:33.817Z,63.53
2018-12-24T16:33:03.202Z,64.03
2018-12-24T16:35:32.518Z,68.73
2018-12-24T16:38:01.918Z,63.63
2018-12-24T16:40:31.396Z,74.27
2018-12-24T16:43:00.741Z,66.03
2018-12-24T16:45:30.120Z,75.60
2018-12-24T16:47:59.472Z,63.90
2018-12-24T16:50:28.893Z,95.23
2018-12-24T16:52:58.297Z,72.23
2018-12-24T16:55:27.873Z,74.77
2018-12-24T16:57:57.297Z,84.13
2018-12-24T17:00:26.844Z,78.97
2018-12-24T17:02:56.328Z,81.67
2018-12-24T17:05:25.710Z,95.53
2018-12-24T17:07:55.139Z,82.90
2018-12-24T17:10:24.635Z,87.60
2018-12-24T17:12:54.050Z,75.40
2018-12-24T17:15:23.432Z,72.20
2018-12-24T17:17:52.861Z,85.87
2018-12-24T17:20:22.196Z,65.73
2018-12-24T17:22:51.632Z,74.70
2018-12-24T17:25:21.154Z,64.57
2018-12-24T17:27:50.593Z,68.73
2018-12-24T17:30:20.060Z,80.43
2018-12-24T17:32:49.538Z,69.43
2018-12-24T17:35:18.935Z,71.30
2018-12-24T17:37:48.417Z,63.40
2018-12-24T17:40:17.921Z,65.97
2018-12-24T17:42:47.319Z,59.90
2018-12-24T17:45:16.704Z,63.47
2018-12-24T17:47:46.211Z,65.13
2018-12-24T17:50:15.645Z,60.17
2018-12-24T17:52:45.048Z,67.07
2018-12-24T17:55:14.515Z,66.77
2018-12-24T17:57:44.021Z,62.97
2018-12-24T18:00:13.391Z,66.03
2018-12-24T18:02:42.825Z,67.90
2018-12-24T18:05:12.197Z,62.70
2018-12-24T18:07:41.571Z,81.17
2018-12-24T18:10:11.057Z,81.73
2018-12-24T18:12:40.425Z,82.43
2018-12-24T18:15:09.874Z,70.10
2018-12-24T18:17:39.359Z,74.00
2018-12-24T18:20:08.711Z,84.57
2018-12-24T18:22:38.111Z,79.77
2018-12-24T18:25:07.653Z,104.53
2018-12-24T18:27:37.121Z,64.50
2018-12-24T18:30:07.035Z,98.47
2018-12-24T18:32:36.461Z,150.93
2018-12-24T18:35:05.912Z,97.07
2018-12-24T18:37:35.331Z,96.83
2018-12-24T18:40:04.837Z,110.57
2018-12-24T18:42:34.289Z,106.23
2018-12-24T18:45:03.816Z,207.27
2018-12-24T18:47:33.569Z,373.20
2018-12-24T18:50:03.134Z,366.07
2018-12-24T18:52:32.577Z,425.53
2018-12-24T18:55:02.016Z,289.53
2018-12-24T18:57:31.457Z,118.80
2018-12-24T19:00:00.831Z,256.53
2018-12-24T19:02:30.282Z,273.57
2018-12-24T19:04:59.639Z,117.40
2018-12-24T19:07:29.068Z,280.47
2018-12-24T19:09:58.473Z,356.63
2018-12-24T19:12:27.821Z,312.17
2018-12-24T19:14:57.169Z,461.33
2018-12-24T19:17:26.626Z,578.63
2018-12-24T19:19:56.032Z,515.07
2018-12-24T19:22:25.511Z,509.03
2018-12-24T19:24:55.006Z,450.07
2018-12-24T19:27:24.350Z,480.93
2018-12-24T19:29:53.706Z,310.73
2018-12-24T19:32:23.421Z,402.77
2018-12-24T19:34:52.806Z,567.40
2018-12-24T19:37:22.227Z,520.47
2018-12-24T19:39:51.655Z,603.40
2018-12-24T19:42:21.124Z,106.70
2018-12-24T19:44:50.547Z,598.40
2018-12-24T19:47:20.049Z,139.97
2018-12-24T19:49:49.445Z,200.87
2018-12-24T19:52:18.925Z,296.27
2018-12-24T19:54:48.388Z,399.87
2018-12-24T19:57:17.846Z,412.97
2018-12-24T19:59:47.224Z,97.07
2018-12-24T20:02:16.670Z,211.53
2018-12-24T20:04:46.098Z,100.90
2018-12-24T20:07:15.468Z,126.90
2018-12-24T20:09:44.991Z,257.23
2018-12-24T20:12:14.446Z,108.00
2018-12-24T20:14:43.899Z,84.70
2018-12-24T20:17:13.408Z,204.83
2018-12-24T20:19:42.759Z,98.17
2018-12-24T20:22:12.241Z,457.37
2018-12-24T20:24:41.704Z,211.40
2018-12-24T20:27:11.085Z,252.03
2018-12-24T20:29:40.443Z,282.30
2018-12-24T20:32:09.981Z,127.53
2018-12-24T20:34:39.357Z,642.23
2018-12-24T20:37:09.595Z,152.70
2018-12-24T20:39:39.039Z,201.33
2018-12-24T20:42:08.482Z,197.20
2018-12-24T20:44:37.855Z,176.57
2018-12-24T20:47:07.258Z,165.40
2018-12-24T20:49:36.634Z,58.23
2018-12-24T20:52:06.018Z,504.03
2018-12-24T20:54:35.506Z,304.00
2018-12-24T20:57:04.929Z,179.27
2018-12-24T20:59:34.383Z,620.23
2018-12-24T21:02:03.926Z,475.83
2018-12-24T21:04:33.353Z,580.10
2018-12-24T21:07:02.719Z,622.67
2018-12-24T21:09:35.331Z,366.10
2018-12-24T21:12:04.807Z,876.67
2018-12-24T21:14:34.235Z,943.63
2018-12-24T21:17:03.752Z,495.03
2018-12-24T21:19:33.279Z,819.07
2018-12-24T21:22:02.657Z,499.10
2018-12-24T21:24:32.082Z,741.40
2018-12-24T21:27:01.509Z,186.03
2018-12-24T21:29:30.898Z,479.37
2018-12-24T21:32:00.404Z,773.27
2018-12-24T21:34:29.783Z,583.13
2018-12-24T21:36:59.232Z,486.27
2018-12-24T21:39:28.801Z,634.40
2018-12-24T21:41:58.137Z,382.93
2018-12-24T21:44:27.507Z,809.33
2018-12-24T21:46:57.291Z,684.07
2018-12-24T21:49:26.655Z,745.73
2018-12-24T21:51:56.056Z,564.03
2018-12-24T21:54:25.512Z,681.67
2018-12-24T21:56:54.907Z,1164.47
2018-12-24T21:59:24.375Z,671.20
2018-12-24T22:01:54.000Z,640.90
2018-12-24T22:04:23.387Z,658.87
2018-12-24T22:06:53.688Z,193.63
2018-12-24T22:09:23.132Z,812.80
2018-12-24T22:11:52.738Z,781.10
2018-12-24T22:14:22.370Z,722.67
2018-12-24T22:16:51.818Z,613.73
2018-12-24T22:19:21.204Z,415.63
2018-12-24T22:21:50.616Z,621.93
2018-12-24T22:24:20.049Z,436.33
2018-12-24T22:26:49.485Z,192.67
2018-12-24T22:29:18.872Z,625.57
2018-12-24T22:31:48.618Z,319.37
2018-12-24T22:34:18.039Z,471.43
2018-12-24T22:36:47.449Z,372.73
2018-12-24T22:39:16.928Z,683.57
2018-12-24T22:41:46.333Z,673.83
2018-12-24T22:44:15.709Z,232.57
2018-12-24T22:46:45.164Z,195.63
2018-12-24T22:49:14.589Z,210.80
2018-12-24T22:51:44.021Z,347.77
2018-12-24T22:54:13.503Z,514.23
2018-12-24T22:56:42.967Z,530.70
2018-12-24T22:59:12.419Z,795.93
2018-12-24T23:01:41.886Z,238.07
2018-12-24T23:04:11.302Z,100.63
2018-12-24T23:06:40.702Z,98.17
2018-12-24T23:09:10.107Z,47.60
2018-12-24T23:11:39.529Z,48.70
2018-12-24T23:14:08.977Z,66.77
2018-12-24T23:16:38.487Z,40.17
2018-12-24T23:19:07.852Z,38.60
2018-12-24T23:21:37.245Z,52.80
2018-12-24T23:24:06.691Z,41.20
2018-12-24T23:26:36.085Z,37.90
2018-12-24T23:29:05.500Z,36.13
2018-12-24T23:31:34.979Z,41.43
2018-12-24T23:34:04.494Z,36.77
2018-12-24T23:36:33.896Z,25.73
2018-12-24T23:39:05.220Z,30.07
2018-12-24T23:41:34.625Z,30.10
2018-12-24T23:44:03.993Z,28.20
2018-12-24T23:46:33.475Z,24.20
2018-12-24T23:49:03.166Z,23.77
2018-12-24T23:51:32.700Z,29.50
2018-12-24T23:54:02.214Z,30.60
2018-12-24T23:56:31.844Z,29.77
2018-12-24T23:59:01.272Z,44.30
